Verdigris, Oklahoma
Current Conditions -  °F | °C
As of 10:15 AM on Monday 22 Dec 2014 (Local Time) from KGCM Reporting Station
Haze Haze  
Wind Chill: 42°   Ceiling: 1300
Heat Index: 46°   Visibility: 4mi
Dew Point: 46°   Wind: 8mph
Humidity: 100%   Direction: 180°S
Pressure: 29.62"   Gusts: NA
Location:  36.3346°N, 95.5666°W
Report Text: KGCM 221615Z AUTO 18007KT 4SM BR SCT008 BKN013 08/08 A2962 RMK AO2
Loading
Personal Weather Stations






























Interactive Weather Map New forecast layout! Learn more

10-Day Weather Forecast

Advertisements
Track Severe Weather on mobile